Time;durP1;ratioP1;P1;durP2;ratioP2;P2;SDS_P1;SDS_P2;PMS_P1;PMS_P2;Temp;Humidity;BMP_temperature;BMP_pressure;BME280_temperature;BME280_humidity;BME280_pressure;Samples;Min_cycle;Max_cycle;Signal;HPM_P1;HPM_P2
2020/12/24 00:01:06;;;;;;;57.60;34.80;;;4.20;93.50;;;;;;4973641;28;20030;-89
2020/12/24 00:03:32;;;;;;;61.45;36.08;;;4.30;93.70;;;;;;4991910;28;20482;-88
2020/12/24 00:05:58;;;;;;;61.03;35.80;;;4.40;93.60;;;;;;4972575;28;20018;-88
2020/12/24 00:08:24;;;;;;;57.85;34.30;;;4.40;93.50;;;;;;4986315;28;20491;-91
2020/12/24 00:10:51;;;;;;;62.45;35.17;;;4.40;93.60;;;;;;4969182;28;20031;-88
2020/12/24 00:13:17;;;;;;;59.70;34.90;;;4.40;93.60;;;;;;4985005;28;20030;-90
2020/12/24 00:15:43;;;;;;;57.80;34.85;;;4.40;93.70;;;;;;4989942;28;20474;-89
2020/12/24 00:18:09;;;;;;;60.28;35.25;;;4.40;93.60;;;;;;4989143;28;20035;-89
2020/12/24 00:20:36;;;;;;;54.00;34.15;;;4.40;93.70;;;;;;4992448;28;20037;-89
2020/12/24 00:23:02;;;;;;;63.75;35.63;;;4.50;93.70;;;;;;4969568;28;20042;-88
2020/12/24 00:25:27;;;;;;;63.65;37.10;;;4.50;93.70;;;;;;4990091;28;20022;-90
2020/12/24 00:27:53;;;;;;;63.75;34.85;;;4.50;93.70;;;;;;4987340;28;20034;-89
2020/12/24 00:30:19;;;;;;;62.60;36.03;;;4.50;94.00;;;;;;5002607;28;20474;-90
2020/12/24 00:32:44;;;;;;;69.70;37.78;;;4.60;94.10;;;;;;4980867;28;20073;-90
2020/12/24 00:35:10;;;;;;;66.32;36.22;;;4.50;94.10;;;;;;4991868;28;20121;-89
2020/12/24 00:37:36;;;;;;;70.45;37.42;;;4.60;94.20;;;;;;4992300;28;20076;-90
2020/12/24 00:40:03;;;;;;;69.20;37.53;;;4.50;94.30;;;;;;4991971;28;20104;-89
2020/12/24 00:42:28;;;;;;;69.75;37.78;;;4.60;94.40;;;;;;4978507;28;20022;-89
2020/12/24 00:44:54;;;;;;;78.35;39.88;;;4.70;94.40;;;;;;4998958;28;20037;-90
2020/12/24 00:47:20;;;;;;;82.35;39.58;;;4.70;94.40;;;;;;4983167;28;20109;-89
2020/12/24 00:49:45;;;;;;;77.80;38.15;;;4.70;94.50;;;;;;4971845;28;20050;-89
2020/12/24 00:52:11;;;;;;;78.88;39.00;;;4.70;94.50;;;;;;4977641;28;20029;-89
2020/12/24 00:54:36;;;;;;;82.30;39.83;;;4.70;94.70;;;;;;4989769;28;20049;-89
2020/12/24 00:57:02;;;;;;;80.68;39.00;;;4.80;94.80;;;;;;4987965;28;20026;-89
2020/12/24 00:59:28;;;;;;;84.63;40.53;;;4.80;94.80;;;;;;5002354;28;20410;-89
2020/12/24 01:01:53;;;;;;;79.10;38.05;;;4.80;94.90;;;;;;4991475;28;20398;-89
2020/12/24 01:04:19;;;;;;;73.22;37.40;;;4.80;94.90;;;;;;4973643;28;20077;-89
2020/12/24 01:06:45;;;;;;;75.88;38.65;;;4.90;95.00;;;;;;4989027;28;20513;-89
2020/12/24 01:09:10;;;;;;;76.85;37.53;;;4.90;95.10;;;;;;4990916;28;20062;-89
2020/12/24 01:11:36;;;;;;;74.93;37.78;;;4.90;95.10;;;;;;4981318;28;20034;-90
2020/12/24 01:14:02;;;;;;;78.10;35.78;;;4.90;95.10;;;;;;4975976;28;20486;-90
2020/12/24 01:16:27;;;;;;;72.78;37.67;;;5.00;95.00;;;;;;4972211;28;20043;-90
2020/12/24 01:18:53;;;;;;;72.32;36.53;;;5.00;95.10;;;;;;4986038;28;20473;-90
2020/12/24 01:21:19;;;;;;;72.55;35.08;;;5.10;95.10;;;;;;4990275;28;20106;-89
2020/12/24 01:23:44;;;;;;;69.45;34.22;;;5.00;95.00;;;;;;4992722;28;20038;-88
2020/12/24 01:26:10;;;;;;;77.22;35.45;;;5.00;95.10;;;;;;4991385;28;20023;-90
2020/12/24 01:28:36;;;;;;;73.00;36.55;;;5.10;95.20;;;;;;4974138;28;20069;-89
2020/12/24 01:31:04;;;;;;;72.20;35.03;;;5.10;95.20;;;;;;4991647;28;20126;-89
2020/12/24 01:33:29;;;;;;;69.30;33.05;;;5.20;95.20;;;;;;4977495;28;20026;-87
2020/12/24 01:35:55;;;;;;;67.82;32.97;;;5.20;95.30;;;;;;4981302;28;20041;-88
2020/12/24 01:38:21;;;;;;;61.35;30.67;;;5.30;95.30;;;;;;4977234;28;20088;-88
2020/12/24 01:40:47;;;;;;;61.38;31.25;;;5.30;95.40;;;;;;4988196;28;20073;-89
2020/12/24 01:43:13;;;;;;;63.38;30.50;;;5.40;95.30;;;;;;4990712;28;20489;-89
2020/12/24 01:45:39;;;;;;;66.78;31.33;;;5.40;95.20;;;;;;4990782;28;20034;-88
2020/12/24 01:48:05;;;;;;;59.70;30.42;;;5.40;95.60;;;;;;4989975;28;20034;-88
2020/12/24 01:50:30;;;;;;;63.50;29.60;;;5.50;95.30;;;;;;4992269;28;20042;-88
2020/12/24 01:52:58;;;;;;;58.58;29.05;;;5.40;95.20;;;;;;4995271;28;20371;-88
2020/12/24 01:55:24;;;;;;;63.08;29.80;;;5.50;95.40;;;;;;4991721;28;20100;-89
2020/12/24 01:57:52;;;;;;;54.88;28.05;;;5.50;95.50;;;;;;4990738;28;20483;-89
2020/12/24 02:00:18;;;;;;;57.33;27.73;;;5.50;95.40;;;;;;4993390;28;20022;-88
2020/12/24 02:02:44;;;;;;;54.90;27.23;;;5.50;95.50;;;;;;4974386;28;20122;-87
2020/12/24 02:05:09;;;;;;;55.38;27.58;;;5.50;95.40;;;;;;4993845;28;20117;-88
2020/12/24 02:07:36;;;;;;;55.10;27.60;;;5.60;95.40;;;;;;4993894;28;20081;-88
2020/12/24 02:10:02;;;;;;;52.65;27.27;;;5.60;95.50;;;;;;4994578;28;20023;-88
2020/12/24 02:12:28;;;;;;;53.63;26.70;;;5.60;95.40;;;;;;4991000;28;20488;-88
2020/12/24 02:14:54;;;;;;;52.53;26.40;;;5.70;95.40;;;;;;4991781;28;20027;-87
2020/12/24 02:17:19;;;;;;;53.63;26.20;;;5.70;95.50;;;;;;4991842;28;20038;-88
2020/12/24 02:19:45;;;;;;;49.47;25.75;;;5.70;95.40;;;;;;4993317;28;20026;-89
2020/12/24 02:22:12;;;;;;;44.13;24.42;;;5.70;95.40;;;;;;4991451;28;20506;-87
2020/12/24 02:24:44;;;;;;;48.28;26.35;;;5.70;95.50;;;;;;4991400;28;20382;-87
2020/12/24 02:27:10;;;;;;;46.70;24.05;;;5.70;95.30;;;;;;4986172;28;20026;-88
2020/12/24 02:29:37;;;;;;;45.25;24.23;;;5.80;95.40;;;;;;4990087;28;20030;-89
2020/12/24 02:32:03;;;;;;;46.72;24.80;;;5.80;95.30;;;;;;4992912;28;20125;-89
2020/12/24 02:34:29;;;;;;;44.17;23.92;;;5.80;95.40;;;;;;4991066;28;20034;-87
2020/12/24 02:36:54;;;;;;;44.60;23.67;;;5.80;95.40;;;;;;4987635;28;20039;-88
2020/12/24 02:39:20;;;;;;;47.00;24.30;;;5.80;95.40;;;;;;4989978;28;20038;-87
2020/12/24 02:41:46;;;;;;;40.55;23.67;;;5.80;95.40;;;;;;4990487;28;20109;-87
2020/12/24 02:44:11;;;;;;;40.17;22.63;;;5.90;95.50;;;;;;4992764;28;20482;-88
2020/12/24 02:46:38;;;;;;;36.38;21.23;;;5.80;95.40;;;;;;4991937;28;20036;-89
2020/12/24 02:49:04;;;;;;;40.58;22.52;;;5.90;95.50;;;;;;4975057;28;20026;-89
2020/12/24 02:51:30;;;;;;;38.88;22.50;;;5.90;95.50;;;;;;4973659;28;20113;-88
2020/12/24 02:53:55;;;;;;;36.50;21.75;;;5.90;95.40;;;;;;4992072;28;20394;-88
2020/12/24 02:56:21;;;;;;;34.88;20.75;;;5.90;95.40;;;;;;4992102;28;20104;-87
2020/12/24 02:58:46;;;;;;;38.85;21.38;;;5.90;95.40;;;;;;4990588;28;20042;-88
2020/12/24 03:01:12;;;;;;;37.58;20.23;;;5.90;95.30;;;;;;4986874;28;20022;-89
2020/12/24 03:03:38;;;;;;;35.85;20.17;;;5.90;95.30;;;;;;4984196;28;20041;-89
2020/12/24 03:06:03;;;;;;;29.50;18.67;;;5.90;95.30;;;;;;4992346;28;20023;-87
2020/12/24 03:08:29;;;;;;;32.03;18.27;;;5.90;95.40;;;;;;4992345;28;20401;-88
2020/12/24 03:10:55;;;;;;;26.65;17.10;;;5.90;95.30;;;;;;4993419;28;20077;-88
2020/12/24 03:13:20;;;;;;;27.02;17.60;;;6.00;95.40;;;;;;4988620;28;20042;-87
2020/12/24 03:15:46;;;;;;;24.42;15.82;;;6.00;95.40;;;;;;4992156;28;20442;-88
2020/12/24 03:18:12;;;;;;;23.52;16.20;;;6.00;95.40;;;;;;4991093;28;20038;-88
2020/12/24 03:20:37;;;;;;;27.58;16.45;;;6.00;95.30;;;;;;4989864;28;20026;-86
2020/12/24 03:23:03;;;;;;;26.15;15.82;;;6.00;95.40;;;;;;4989626;28;20042;-88
2020/12/24 03:25:29;;;;;;;22.17;15.25;;;5.90;95.40;;;;;;4988262;28;20106;-87
2020/12/24 03:27:54;;;;;;;23.25;14.18;;;6.00;95.40;;;;;;4982650;28;20202;-87
2020/12/24 03:30:20;;;;;;;18.58;12.98;;;6.00;95.40;;;;;;4972854;28;20065;-88
2020/12/24 03:32:46;;;;;;;19.70;12.90;;;6.00;95.30;;;;;;4988336;28;20073;-88
2020/12/24 03:35:11;;;;;;;20.42;12.77;;;6.00;95.20;;;;;;4991977;28;20502;-88
2020/12/24 03:37:37;;;;;;;18.35;12.82;;;6.10;95.10;;;;;;4975363;28;20037;-87
2020/12/24 03:40:04;;;;;;;19.45;13.10;;;6.10;95.10;;;;;;4986783;28;20050;-88
2020/12/24 03:42:30;;;;;;;16.42;11.77;;;6.20;95.00;;;;;;4989348;28;20037;-89
2020/12/24 03:44:56;;;;;;;15.18;10.30;;;6.10;95.00;;;;;;4989208;28;20030;-87
2020/12/24 03:47:21;;;;;;;14.30;10.70;;;6.20;95.10;;;;;;4990763;28;20065;-88
2020/12/24 03:49:47;;;;;;;14.85;9.77;;;6.10;94.80;;;;;;4992617;28;20022;-87
2020/12/24 03:52:13;;;;;;;11.13;7.95;;;6.10;94.90;;;;;;4989956;28;20046;-88
2020/12/24 03:54:38;;;;;;;14.20;9.38;;;6.10;95.00;;;;;;4990337;28;20439;-88
2020/12/24 03:57:04;;;;;;;10.13;7.50;;;6.00;94.90;;;;;;4989399;28;20058;-87
2020/12/24 03:59:29;;;;;;;11.45;7.93;;;6.10;94.90;;;;;;4989490;28;20081;-87
2020/12/24 04:01:55;;;;;;;9.70;7.20;;;6.00;94.80;;;;;;4992050;28;20030;-87
2020/12/24 04:04:21;;;;;;;11.05;6.95;;;6.00;94.80;;;;;;4989210;28;20037;-88
2020/12/24 04:06:46;;;;;;;9.32;6.95;;;6.00;94.70;;;;;;4990111;28;20022;-88
2020/12/24 04:09:12;;;;;;;9.10;7.03;;;6.00;94.70;;;;;;4971606;28;20033;-89
2020/12/24 04:11:37;;;;;;;9.95;6.53;;;6.00;94.80;;;;;;4971506;28;20089;-88
2020/12/24 04:14:03;;;;;;;9.60;6.93;;;5.90;94.80;;;;;;4991126;28;20584;-88
2020/12/24 04:16:29;;;;;;;8.63;6.13;;;5.90;94.80;;;;;;4972565;28;20026;-88
2020/12/24 04:18:54;;;;;;;9.43;6.90;;;6.00;94.70;;;;;;4988915;28;20038;-87
2020/12/24 04:21:20;;;;;;;10.85;7.57;;;6.00;94.80;;;;;;4988764;28;20034;-88
2020/12/24 04:23:46;;;;;;;7.63;6.15;;;5.90;94.80;;;;;;4989033;28;20027;-88
2020/12/24 04:26:22;;;;;;;8.82;6.22;;;5.90;94.90;;;;;;4991082;28;20422;-89
2020/12/24 04:28:49;;;;;;;7.95;6.03;;;5.90;94.80;;;;;;4988652;28;20041;-87
2020/12/24 04:31:15;;;;;;;8.30;5.13;;;5.90;94.80;;;;;;4988433;28;20037;-87
2020/12/24 04:33:41;;;;;;;8.07;6.05;;;5.90;94.60;;;;;;4990163;28;20043;-87
2020/12/24 04:36:07;;;;;;;9.30;6.45;;;5.90;94.80;;;;;;4988654;28;20502;-87
2020/12/24 04:38:34;;;;;;;8.32;5.93;;;5.90;94.80;;;;;;4973677;28;20041;-88
2020/12/24 04:41:00;;;;;;;9.57;6.28;;;5.90;94.80;;;;;;4990601;28;20474;-87
2020/12/24 04:43:29;;;;;;;9.07;6.63;;;5.90;94.70;;;;;;4989702;28;20029;-87
2020/12/24 04:45:55;;;;;;;8.50;6.28;;;5.90;94.70;;;;;;4990674;28;20110;-87
2020/12/24 04:48:22;;;;;;;10.35;6.82;;;5.90;94.80;;;;;;4991032;28;20030;-87
2020/12/24 04:50:52;;;;;;;9.05;6.57;;;5.90;94.80;;;;;;4988695;28;20097;-87
2020/12/24 04:53:19;;;;;;;9.60;6.68;;;5.90;94.90;;;;;;4990794;28;20019;-86
2020/12/24 04:55:46;;;;;;;10.50;6.80;;;5.90;94.80;;;;;;4991432;28;20496;-86
2020/12/24 04:58:12;;;;;;;7.93;6.13;;;6.00;94.90;;;;;;4986456;28;20042;-87
2020/12/24 05:00:39;;;;;;;11.02;7.13;;;5.90;94.80;;;;;;4984900;28;20019;-86
2020/12/24 05:03:10;;;;;;;8.38;6.50;;;5.90;94.70;;;;;;4990828;28;20042;-86
2020/12/24 05:05:38;;;;;;;8.85;6.50;;;6.00;94.80;;;;;;4993432;28;20030;-86
2020/12/24 05:08:08;;;;;;;9.77;6.82;;;5.90;94.80;;;;;;4993459;28;20026;-87
2020/12/24 05:10:35;;;;;;;8.98;6.28;;;6.00;94.80;;;;;;4995219;28;20097;-87
2020/12/24 05:13:18;;;;;;;9.70;6.80;;;6.00;94.70;;;;;;4990979;28;20034;-87
2020/12/24 05:15:44;;;;;;;10.00;7.95;;;6.00;94.70;;;;;;4994522;28;20126;-89
2020/12/24 05:18:13;;;;;;;10.40;7.80;;;6.00;94.70;;;;;;4991463;28;20045;-87
2020/12/24 05:20:39;;;;;;;7.88;6.65;;;6.00;94.80;;;;;;4985862;28;20101;-88
2020/12/24 05:23:16;;;;;;;9.88;7.75;;;6.00;94.80;;;;;;4995231;28;20049;-87
2020/12/24 05:25:43;;;;;;;14.88;8.60;;;6.00;94.80;;;;;;4995418;28;20022;-88
2020/12/24 05:28:18;;;;;;;11.02;8.18;;;6.00;94.90;;;;;;4993707;28;20089;-86
2020/12/24 05:30:44;;;;;;;11.00;7.57;;;6.00;95.00;;;;;;4975092;28;20037;-87
2020/12/24 05:33:10;;;;;;;12.38;9.15;;;6.00;95.00;;;;;;4991617;28;20026;-88
2020/12/24 05:35:36;;;;;;;14.05;8.75;;;6.10;95.10;;;;;;4985748;28;20043;-87
2020/12/24 05:38:01;;;;;;;13.80;8.73;;;6.10;95.20;;;;;;4994552;28;20079;-87
2020/12/24 05:40:30;;;;;;;10.93;8.82;;;6.10;95.10;;;;;;4993452;28;20082;-87
2020/12/24 05:43:01;;;;;;;12.25;8.82;;;6.10;95.20;;;;;;4987878;28;20049;-88
2020/12/24 05:45:31;;;;;;;13.30;9.68;;;6.20;95.20;;;;;;4993150;28;20034;-87
2020/12/24 05:48:23;;;;;;;;;;;6.20;95.20;;;;;;4964858;28;20619;-87
2020/12/24 05:50:49;;;;;;;14.48;9.63;;;6.20;95.00;;;;;;4983917;28;19910;-87
2020/12/24 05:53:23;;;;;;;12.00;9.07;;;6.20;95.00;;;;;;4993628;28;20523;-88
2020/12/24 05:55:49;;;;;;;14.52;10.70;;;6.20;95.10;;;;;;4995190;28;20080;-88
2020/12/24 05:58:16;;;;;;;14.27;10.65;;;6.20;95.00;;;;;;4993656;28;20117;-87
2020/12/24 06:00:44;;;;;;;15.32;11.18;;;6.20;95.10;;;;;;4992371;28;20061;-88
2020/12/24 06:03:16;;;;;;;13.18;10.45;;;6.20;95.20;;;;;;4993521;28;20178;-88
2020/12/24 06:05:45;;;;;;;18.17;11.68;;;6.20;95.30;;;;;;4993723;28;20019;-87
2020/12/24 06:08:19;;;;;;;16.83;11.52;;;6.20;95.30;;;;;;4993323;28;20030;-88
2020/12/24 06:10:46;;;;;;;16.33;12.23;;;6.30;95.30;;;;;;4993781;28;20037;-88
2020/12/24 06:13:16;;;;;;;15.23;11.80;;;6.30;95.30;;;;;;4990378;28;20027;-88
2020/12/24 06:15:45;;;;;;;16.23;13.18;;;6.30;95.30;;;;;;4991297;28;20080;-87
2020/12/24 06:18:12;;;;;;;14.38;11.73;;;6.40;95.40;;;;;;4992709;28;20026;-88
2020/12/24 06:20:43;;;;;;;18.30;13.00;;;6.40;95.40;;;;;;4988978;28;20026;-89
2020/12/24 06:23:10;;;;;;;17.80;13.38;;;6.40;95.40;;;;;;4985834;28;20073;-88
2020/12/24 06:25:36;;;;;;;18.70;14.25;;;6.40;95.50;;;;;;4990560;28;20053;-88
2020/12/24 06:28:04;;;;;;;18.20;12.75;;;6.40;95.60;;;;;;4993031;28;20483;-88
2020/12/24 06:30:30;;;;;;;18.13;14.00;;;6.40;95.60;;;;;;4990857;28;20422;-88
2020/12/24 06:32:58;;;;;;;18.38;14.05;;;6.50;95.70;;;;;;4960683;28;20022;-87
2020/12/24 06:35:42;;;;;;;20.95;14.80;;;6.50;95.70;;;;;;4991994;28;20055;-88
2020/12/24 06:38:11;;;;;;;19.98;14.50;;;6.60;95.80;;;;;;4991103;28;20038;-87
2020/12/24 06:40:47;;;;;;;20.00;14.88;;;6.60;95.80;;;;;;4993850;28;20137;-89
2020/12/24 06:43:13;;;;;;;19.27;13.90;;;6.60;95.70;;;;;;4990645;28;20038;-88
2020/12/24 06:45:40;;;;;;;17.63;13.93;;;6.60;95.80;;;;;;4990617;28;20022;-88
2020/12/24 06:48:24;;;;;;;20.33;14.88;;;6.70;95.80;;;;;;4989281;28;20113;-86
2020/12/24 06:51:02;;;;;;;18.20;13.55;;;6.70;95.80;;;;;;4991253;28;20110;-86
2020/12/24 06:53:39;;;;;;;18.73;14.80;;;6.70;95.80;;;;;;4981310;28;20409;-87
2020/12/24 06:56:22;;;;;;;21.38;14.90;;;6.70;95.90;;;;;;4989351;28;20054;-89
2020/12/24 06:59:23;;;;;;;21.17;15.25;;;6.80;96.00;;;;;;4992573;28;20031;-87
2020/12/24 07:02:09;;;;;;;23.40;17.52;;;6.80;95.90;;;;;;4991526;28;20022;-87
2020/12/24 07:04:35;;;;;;;20.38;15.55;;;6.80;95.90;;;;;;4973554;28;20512;-90
2020/12/24 07:07:01;;;;;;;22.15;16.63;;;6.90;95.90;;;;;;4987158;28;20109;-88
2020/12/24 07:09:27;;;;;;;20.30;16.08;;;6.90;95.90;;;;;;4992300;28;20109;-89
2020/12/24 07:11:53;;;;;;;23.80;17.13;;;6.90;95.80;;;;;;4989947;28;20033;-90
2020/12/24 07:14:28;;;;;;;22.55;17.17;;;7.00;95.80;;;;;;4990705;28;20764;-88
2020/12/24 07:16:55;;;;;;;22.27;16.17;;;7.00;95.80;;;;;;4993304;28;20413;-90
2020/12/24 07:19:22;;;;;;;24.90;16.45;;;7.10;95.80;;;;;;4981395;28;20038;-89
2020/12/24 07:21:49;;;;;;;26.25;17.33;;;7.10;95.70;;;;;;4987342;28;20029;-89
2020/12/24 07:24:25;;;;;;;21.85;15.15;;;7.10;95.80;;;;;;4989802;28;20433;-88
2020/12/24 07:27:00;;;;;;;25.13;17.23;;;7.20;95.80;;;;;;4982857;28;20031;-89
2020/12/24 07:29:28;;;;;;;22.23;16.00;;;7.20;95.70;;;;;;4991968;28;20528;-89
2020/12/24 07:31:56;;;;;;;25.70;18.48;;;7.20;95.60;;;;;;4960351;28;20130;-90
2020/12/24 07:34:23;;;;;;;24.05;17.83;;;7.30;95.60;;;;;;4988853;28;20030;-90
2020/12/24 07:36:49;;;;;;;24.90;19.08;;;7.30;95.70;;;;;;4989764;28;20039;-88
2020/12/24 07:39:15;;;;;;;24.35;18.05;;;7.30;95.80;;;;;;5004099;28;20552;-91
2020/12/24 07:41:41;;;;;;;25.20;17.80;;;7.30;95.80;;;;;;4994470;28;20032;-88
2020/12/24 07:44:12;;;;;;;25.30;17.75;;;7.40;95.80;;;;;;4989952;28;20050;-89
2020/12/24 07:46:38;;;;;;;26.50;18.65;;;7.40;95.90;;;;;;4990719;28;20073;-88
2020/12/24 07:49:05;;;;;;;26.20;18.48;;;7.50;95.90;;;;;;4989864;28;20158;-88
2020/12/24 07:51:32;;;;;;;22.58;17.88;;;7.50;96.00;;;;;;4989856;28;20049;-90
2020/12/24 07:54:08;;;;;;;25.17;19.20;;;7.60;96.00;;;;;;4991180;28;20121;-89
2020/12/24 07:56:35;;;;;;;26.45;19.05;;;7.60;95.90;;;;;;4992186;28;20049;-90
2020/12/24 07:59:03;;;;;;;31.20;21.85;;;7.60;95.90;;;;;;4991998;28;20026;-89
2020/12/24 08:01:29;;;;;;;25.80;18.70;;;7.70;96.00;;;;;;4983470;28;20033;-90
2020/12/24 08:03:59;;;;;;;27.77;20.23;;;7.70;96.00;;;;;;4971722;28;20338;-88
2020/12/24 08:06:26;;;;;;;27.98;20.55;;;7.80;96.00;;;;;;4991950;28;20034;-89
2020/12/24 08:08:52;;;;;;;28.83;20.88;;;7.80;96.10;;;;;;4971498;28;20023;-88
2020/12/24 08:11:18;;;;;;;28.67;20.02;;;7.90;96.10;;;;;;4991055;28;20470;-89
2020/12/24 08:13:43;;;;;;;26.85;21.27;;;7.90;96.10;;;;;;5006138;28;20034;-90
2020/12/24 08:16:12;;;;;;;28.52;21.35;;;7.90;96.10;;;;;;4991251;28;20030;-89
2020/12/24 08:18:44;;;;;;;31.95;21.95;;;8.00;96.20;;;;;;4990550;28;20534;-90
2020/12/24 08:21:24;;;;;;;29.63;20.27;;;8.00;96.20;;;;;;4991259;28;20025;-89
2020/12/24 08:24:05;;;;;;;32.88;22.13;;;8.00;96.30;;;;;;4989485;28;20509;-89
2020/12/24 08:26:32;;;;;;;32.58;21.98;;;8.00;96.40;;;;;;4979719;28;20549;-89
2020/12/24 08:29:02;;;;;;;34.17;23.00;;;8.10;96.40;;;;;;4991539;28;21522;-89
2020/12/24 08:31:29;;;;;;;31.95;22.95;;;8.10;96.50;;;;;;4989064;28;20019;-89
2020/12/24 08:33:55;;;;;;;30.70;23.25;;;8.20;96.70;;;;;;4982480;28;20109;-90
2020/12/24 08:36:26;;;;;;;30.02;21.88;;;8.20;96.70;;;;;;4984709;28;20129;-90
2020/12/24 08:39:03;;;;;;;;;;;8.20;96.70;;;;;;4972770;28;20038;-90
2020/12/24 08:41:33;;;;;;;28.17;21.05;;;8.30;96.80;;;;;;4988148;28;20478;-89
2020/12/24 08:44:03;;;;;;;36.45;23.35;;;8.30;96.90;;;;;;4970908;28;20061;-89
2020/12/24 08:46:29;;;;;;;;;;;8.40;96.80;;;;;;4989662;28;20484;-89
2020/12/24 08:48:56;;;;;;;31.65;22.35;;;8.40;96.80;;;;;;4990029;28;20008;-90
2020/12/24 08:51:22;;;;;;;29.75;22.58;;;8.50;96.80;;;;;;4990054;28;20030;-90
2020/12/24 08:53:49;;;;;;;31.80;23.05;;;8.50;96.80;;;;;;4971197;28;20030;-90
2020/12/24 08:56:18;;;;;;;29.67;22.48;;;8.50;96.70;;;;;;4991125;28;20070;-89
2020/12/24 08:58:52;;;;;;;30.77;21.60;;;8.60;96.80;;;;;;4973008;28;20513;-90
2020/12/24 09:01:19;;;;;;;30.55;22.05;;;8.60;96.70;;;;;;4989624;28;20403;-88
2020/12/24 09:03:46;;;;;;;31.60;23.05;;;8.70;96.70;;;;;;4988303;28;20038;-90
2020/12/24 09:06:13;;;;;;;31.30;22.85;;;8.70;96.80;;;;;;4985656;28;20025;-90
2020/12/24 09:08:40;;;;;;;31.15;23.42;;;8.70;96.80;;;;;;4984302;28;20023;-90
2020/12/24 09:11:23;;;;;;;33.35;24.38;;;8.80;96.80;;;;;;4990901;28;20364;-86
2020/12/24 09:14:02;;;;;;;29.15;22.70;;;8.80;96.90;;;;;;4973596;28;20494;-91
2020/12/24 09:16:31;;;;;;;35.08;22.70;;;8.90;96.80;;;;;;4989061;28;20026;-92
2020/12/24 09:19:05;;;;;;;31.23;23.42;;;8.90;96.90;;;;;;4971748;28;20452;-89
2020/12/24 09:21:32;;;;;;;31.00;22.27;;;8.90;96.80;;;;;;4988924;28;20319;-90
2020/12/24 09:24:09;;;;;;;28.50;21.95;;;9.00;96.80;;;;;;4963767;28;20848;-89
2020/12/24 09:26:46;;;;;;;29.42;20.73;;;9.10;96.80;;;;;;4969554;28;20022;-89
2020/12/24 09:29:12;;;;;;;27.83;20.85;;;9.10;96.80;;;;;;4972681;28;20467;-89
2020/12/24 09:31:38;;;;;;;29.27;20.67;;;9.20;96.80;;;;;;4983257;28;20451;-89
2020/12/24 09:34:05;;;;;;;25.23;19.80;;;9.30;96.70;;;;;;4984456;28;20486;-90
2020/12/24 09:36:30;;;;;;;29.50;20.50;;;9.30;96.60;;;;;;4987725;28;20046;-91
2020/12/24 09:38:56;;;;;;;29.98;20.10;;;9.30;96.60;;;;;;4970885;28;20408;-89
2020/12/24 09:41:22;;;;;;;28.73;20.90;;;9.30;96.50;;;;;;4971574;28;20023;-90
2020/12/24 09:43:48;;;;;;;25.27;19.80;;;9.40;96.50;;;;;;4989319;28;20081;-89
2020/12/24 09:46:15;;;;;;;25.75;19.77;;;9.40;96.40;;;;;;4972682;28;20427;-89
2020/12/24 09:48:40;;;;;;;27.45;18.35;;;9.40;96.40;;;;;;4989338;28;20108;-89
2020/12/24 09:51:06;;;;;;;23.52;18.00;;;9.50;96.40;;;;;;4991634;28;20058;-88
2020/12/24 09:53:32;;;;;;;23.17;16.52;;;9.50;96.40;;;;;;4990706;28;20023;-89
2020/12/24 09:55:57;;;;;;;20.10;15.32;;;9.60;96.40;;;;;;4994534;28;20050;-89
2020/12/24 09:58:23;;;;;;;21.30;15.77;;;9.60;96.30;;;;;;4991683;28;20041;-89
2020/12/24 10:00:49;;;;;;;23.33;14.80;;;9.60;96.20;;;;;;4988150;28;20113;-88
2020/12/24 10:03:14;;;;;;;19.02;13.55;;;9.70;96.10;;;;;;4986212;28;20228;-90
2020/12/24 10:05:40;;;;;;;20.33;14.35;;;9.70;96.10;;;;;;4992021;28;20389;-89
2020/12/24 10:08:06;;;;;;;18.77;14.23;;;9.80;96.10;;;;;;4972805;28;20036;-89
2020/12/24 10:10:32;;;;;;;21.05;14.75;;;9.80;96.00;;;;;;4976648;28;20497;-87
2020/12/24 10:12:58;;;;;;;19.45;14.85;;;9.80;96.00;;;;;;4988654;28;20027;-88
2020/12/24 10:15:23;;;;;;;20.83;14.52;;;9.80;96.00;;;;;;4991249;28;20026;-88
2020/12/24 10:17:49;;;;;;;20.27;14.60;;;9.80;96.00;;;;;;4992515;28;20030;-87
2020/12/24 10:20:14;;;;;;;19.25;14.20;;;9.80;96.00;;;;;;4992486;28;20042;-88
2020/12/24 10:22:40;;;;;;;22.75;15.05;;;9.70;96.00;;;;;;5002064;28;20062;-89
2020/12/24 10:25:06;;;;;;;17.98;13.70;;;9.80;96.00;;;;;;5002302;28;20030;-88
2020/12/24 10:27:31;;;;;;;18.52;13.18;;;9.70;95.90;;;;;;4987207;28;20033;-88
2020/12/24 10:29:57;;;;;;;19.20;14.00;;;9.70;96.00;;;;;;4987007;28;20029;-87
2020/12/24 10:32:23;;;;;;;17.58;13.52;;;9.70;96.00;;;;;;4987146;28;20109;-88
2020/12/24 10:34:49;;;;;;;16.50;13.63;;;9.70;96.10;;;;;;4993946;28;20022;-88
2020/12/24 10:37:15;;;;;;;20.00;14.65;;;9.80;96.20;;;;;;4991635;28;20042;-90
2020/12/24 10:39:40;;;;;;;18.73;14.48;;;9.70;96.10;;;;;;4990159;28;20034;-88
2020/12/24 10:42:06;;;;;;;18.30;14.05;;;9.80;96.20;;;;;;4991635;28;20082;-90
2020/12/24 10:44:32;;;;;;;16.67;13.73;;;9.70;96.10;;;;;;4990826;28;20026;-88
2020/12/24 10:46:58;;;;;;;20.17;14.45;;;9.70;96.20;;;;;;4989816;28;20030;-88
2020/12/24 10:49:24;;;;;;;20.20;15.18;;;9.80;96.10;;;;;;4987776;28;20026;-89
2020/12/24 10:51:50;;;;;;;23.85;16.75;;;9.80;96.10;;;;;;4989503;28;20010;-89
2020/12/24 10:54:16;;;;;;;24.38;17.10;;;9.80;96.10;;;;;;4991147;28;20058;-89
2020/12/24 10:56:47;;;;;;;23.90;17.88;;;9.70;96.10;;;;;;4990811;28;20054;-89
2020/12/24 10:59:13;;;;;;;23.13;16.30;;;9.80;96.10;;;;;;4991916;28;20042;-88
2020/12/24 11:01:38;;;;;;;23.17;14.43;;;9.80;96.10;;;;;;4991198;28;20019;-89
2020/12/24 11:04:05;;;;;;;17.88;14.02;;;9.70;96.10;;;;;;4975263;28;20461;-88
2020/12/24 11:06:33;;;;;;;19.15;13.25;;;9.70;96.10;;;;;;4989064;28;20011;-89
2020/12/24 11:08:59;;;;;;;20.13;12.60;;;9.80;96.20;;;;;;4990870;28;20033;-88
2020/12/24 11:11:25;;;;;;;18.67;13.50;;;9.80;96.10;;;;;;4991378;28;20025;-88
2020/12/24 11:13:50;;;;;;;19.45;13.45;;;9.80;96.00;;;;;;4991678;28;20034;-88
2020/12/24 11:16:23;;;;;;;15.02;11.18;;;9.80;96.10;;;;;;4988993;28;20049;-89
2020/12/24 11:18:50;;;;;;;16.65;11.88;;;9.80;96.10;;;;;;4989165;28;20030;-89
2020/12/24 11:21:17;;;;;;;14.65;10.75;;;9.90;96.10;;;;;;4992541;28;20026;-88
2020/12/24 11:23:43;;;;;;;14.13;10.70;;;9.80;96.00;;;;;;4988162;28;20030;-88
2020/12/24 11:26:09;;;;;;;15.38;8.95;;;9.80;96.10;;;;;;4992780;28;20023;-90
2020/12/24 11:28:35;;;;;;;12.63;9.35;;;9.80;96.00;;;;;;4994050;28;20132;-89
2020/12/24 11:31:01;;;;;;;12.43;9.05;;;9.90;96.00;;;;;;4972012;28;20477;-88
2020/12/24 11:33:27;;;;;;;12.75;9.27;;;9.90;96.00;;;;;;4988951;28;20057;-89
2020/12/24 11:35:52;;;;;;;11.10;8.13;;;9.90;96.00;;;;;;4990427;28;20050;-89
2020/12/24 11:38:18;;;;;;;11.63;7.57;;;9.90;95.90;;;;;;4990259;28;20114;-88
2020/12/24 11:40:44;;;;;;;13.20;8.45;;;9.90;95.90;;;;;;4993074;28;20030;-87
2020/12/24 11:43:10;;;;;;;15.55;8.90;;;9.90;95.90;;;;;;4987063;28;20031;-91
2020/12/24 11:45:35;;;;;;;13.70;9.30;;;9.90;95.80;;;;;;4989874;28;20034;-89
2020/12/24 11:48:01;;;;;;;12.18;7.57;;;9.90;95.90;;;;;;4991391;28;20023;-88
2020/12/24 11:50:27;;;;;;;11.85;7.60;;;9.90;95.90;;;;;;4990914;28;20030;-88
2020/12/24 11:52:52;;;;;;;11.88;8.15;;;10.00;95.80;;;;;;4991859;28;20485;-88
2020/12/24 11:55:18;;;;;;;10.80;7.90;;;10.00;95.70;;;;;;4992017;28;20065;-88
2020/12/24 11:57:43;;;;;;;10.63;7.35;;;10.00;95.70;;;;;;4991159;28;20035;-88
2020/12/24 12:00:10;;;;;;;13.73;7.70;;;10.00;95.60;;;;;;4991453;28;20042;-88
2020/12/24 12:02:39;;;;;;;12.07;8.63;;;10.00;95.70;;;;;;4991946;28;20027;-88
2020/12/24 12:05:05;;;;;;;14.32;8.15;;;10.00;95.70;;;;;;4975020;28;20034;-88
2020/12/24 12:07:31;;;;;;;11.30;8.27;;;10.00;95.80;;;;;;4990427;28;20022;-88
2020/12/24 12:09:57;;;;;;;13.32;8.80;;;10.00;95.70;;;;;;4991013;28;20093;-87
2020/12/24 12:12:23;;;;;;;14.07;8.93;;;10.00;95.70;;;;;;4990029;28;20041;-88
2020/12/24 12:14:50;;;;;;;12.10;9.07;;;9.90;95.80;;;;;;4971637;28;20494;-89
2020/12/24 12:17:17;;;;;;;14.65;9.27;;;10.00;95.80;;;;;;4982660;28;20026;-87
2020/12/24 12:19:46;;;;;;;16.88;10.68;;;10.00;95.80;;;;;;4990930;28;20026;-88
2020/12/24 12:22:12;;;;;;;19.98;10.25;;;10.00;95.70;;;;;;4987620;28;20037;-88
2020/12/24 12:24:39;;;;;;;16.17;10.10;;;10.00;95.70;;;;;;4989256;28;20026;-87
2020/12/24 12:27:07;;;;;;;17.10;9.98;;;9.90;95.70;;;;;;4989758;28;20023;-88
2020/12/24 12:29:33;;;;;;;16.42;9.80;;;9.90;95.70;;;;;;4967206;28;20023;-88
2020/12/24 12:31:58;;;;;;;16.10;9.73;;;9.90;95.70;;;;;;4991101;28;20074;-89
2020/12/24 12:34:26;;;;;;;16.30;9.82;;;9.90;95.70;;;;;;4988439;28;20534;-88
2020/12/24 12:36:52;;;;;;;13.07;8.88;;;9.90;95.70;;;;;;4987392;28;20045;-87
2020/12/24 12:39:19;;;;;;;15.50;8.45;;;9.90;95.60;;;;;;4987447;28;20042;-88
2020/12/24 12:41:45;;;;;;;13.27;8.90;;;9.90;95.60;;;;;;4989576;28;20085;-89